createdAt,value
2019-01-30T00:01:42.633Z,15.77
2019-01-30T00:04:12.313Z,15.43
2019-01-30T00:06:41.952Z,16.30
2019-01-30T00:09:11.674Z,16.97
2019-01-30T00:11:41.117Z,14.23
2019-01-30T00:14:10.520Z,15.80
2019-01-30T00:16:40.162Z,15.90
2019-01-30T00:19:09.875Z,18.47
2019-01-30T00:21:39.470Z,17.10
2019-01-30T00:24:09.170Z,16.53
2019-01-30T00:26:38.907Z,15.63
2019-01-30T00:29:08.610Z,18.60
2019-01-30T00:31:38.094Z,18.90
2019-01-30T00:34:07.693Z,14.63
2019-01-30T00:36:37.370Z,19.07
2019-01-30T00:39:08.564Z,19.20
2019-01-30T00:41:38.071Z,15.77
2019-01-30T00:44:27.696Z,15.80
2019-01-30T00:46:57.149Z,15.90
2019-01-30T00:49:26.884Z,20.10
2019-01-30T00:51:56.361Z,20.00
2019-01-30T00:54:32.134Z,18.40
2019-01-30T00:56:58.833Z,17.07
2019-01-30T00:59:28.086Z,14.67
2019-01-30T01:01:57.366Z,17.43
2019-01-30T01:04:26.609Z,14.27
2019-01-30T01:06:57.217Z,16.23
2019-01-30T01:09:26.505Z,12.67
2019-01-30T01:11:55.806Z,14.13
2019-01-30T01:14:25.089Z,15.23
2019-01-30T01:16:54.347Z,15.87
2019-01-30T01:19:23.617Z,15.57
2019-01-30T01:21:52.874Z,14.73
2019-01-30T01:24:22.162Z,17.33
2019-01-30T01:26:51.423Z,15.23
2019-01-30T01:29:20.676Z,14.30
2019-01-30T01:31:49.959Z,14.37
2019-01-30T01:34:19.217Z,13.03
2019-01-30T01:36:48.477Z,15.00
2019-01-30T01:39:17.729Z,14.33
2019-01-30T01:41:47.039Z,13.67
2019-01-30T01:44:16.284Z,16.03
2019-01-30T01:46:45.578Z,13.47
2019-01-30T01:49:14.860Z,20.43
2019-01-30T01:51:44.129Z,13.67
2019-01-30T01:54:13.410Z,13.37
2019-01-30T01:56:42.673Z,12.60
2019-01-30T01:59:11.986Z,13.80
2019-01-30T02:01:41.317Z,15.23
2019-01-30T02:04:10.592Z,11.70
2019-01-30T02:06:39.848Z,13.87
2019-01-30T02:09:09.673Z,13.90
2019-01-30T02:11:38.949Z,12.57
2019-01-30T02:14:08.209Z,14.90
2019-01-30T02:16:37.485Z,17.20
2019-01-30T02:19:06.740Z,12.53
2019-01-30T02:21:36.016Z,14.63
2019-01-30T02:24:05.291Z,12.33
2019-01-30T02:26:34.568Z,13.07
2019-01-30T02:29:04.056Z,11.87
2019-01-30T02:31:33.316Z,12.93
2019-01-30T02:34:03.655Z,11.43
2019-01-30T02:36:34.567Z,12.00
2019-01-30T02:39:04.909Z,15.80
2019-01-30T02:41:34.190Z,15.13
2019-01-30T02:44:03.471Z,12.70
2019-01-30T02:46:32.723Z,11.77
2019-01-30T02:49:02.008Z,14.60
2019-01-30T02:51:31.270Z,14.70
2019-01-30T02:54:00.563Z,14.73
2019-01-30T02:56:29.813Z,12.13
2019-01-30T02:58:59.074Z,13.90
2019-01-30T03:01:28.349Z,13.60
2019-01-30T03:03:57.608Z,11.63
2019-01-30T03:06:26.891Z,12.93
2019-01-30T03:08:56.145Z,15.57
2019-01-30T03:11:25.531Z,11.33
2019-01-30T03:13:54.776Z,12.90
2019-01-30T03:16:24.020Z,13.70
2019-01-30T03:18:53.300Z,15.83
2019-01-30T03:21:22.558Z,11.80
2019-01-30T03:23:51.834Z,13.30
2019-01-30T03:26:21.092Z,12.27
2019-01-30T03:28:50.377Z,14.87
2019-01-30T03:31:19.776Z,12.27
2019-01-30T03:33:49.104Z,13.43
2019-01-30T03:36:18.365Z,11.50
2019-01-30T03:38:47.617Z,12.30
2019-01-30T03:41:16.899Z,12.13
2019-01-30T03:43:46.213Z,12.80
2019-01-30T03:46:15.488Z,13.80
2019-01-30T03:48:44.745Z,11.30
2019-01-30T03:51:14.046Z,11.07
2019-01-30T03:53:43.280Z,10.77
2019-01-30T03:56:12.564Z,12.23
2019-01-30T03:58:41.846Z,9.83
2019-01-30T04:01:11.151Z,11.87
2019-01-30T04:03:40.441Z,10.07
2019-01-30T04:06:09.690Z,9.67
2019-01-30T04:08:38.964Z,9.03
2019-01-30T04:11:08.219Z,9.43
2019-01-30T04:13:37.492Z,8.80
2019-01-30T04:16:06.944Z,9.77
2019-01-30T04:18:36.215Z,9.67
2019-01-30T04:21:05.590Z,8.33
2019-01-30T04:23:34.854Z,11.03
2019-01-30T04:26:04.240Z,9.10
2019-01-30T04:28:33.505Z,7.20
2019-01-30T04:31:02.786Z,6.90
2019-01-30T04:33:32.032Z,9.00
2019-01-30T04:36:01.313Z,8.20
2019-01-30T04:38:30.580Z,9.60
2019-01-30T04:40:59.838Z,6.67
2019-01-30T04:43:29.153Z,7.33
2019-01-30T04:45:58.378Z,7.33
2019-01-30T04:48:27.668Z,8.73
2019-01-30T04:50:56.912Z,8.80
2019-01-30T04:53:26.202Z,9.07
2019-01-30T04:55:55.496Z,7.70
2019-01-30T04:58:24.842Z,8.30
2019-01-30T05:00:54.127Z,8.57
2019-01-30T05:03:24.767Z,7.53
2019-01-30T05:05:54.135Z,8.07
2019-01-30T05:08:23.452Z,8.23
2019-01-30T05:10:52.707Z,7.10
2019-01-30T05:13:21.987Z,7.27
2019-01-30T05:15:51.306Z,7.83
2019-01-30T05:18:20.595Z,6.93
2019-01-30T05:20:49.846Z,6.87
2019-01-30T05:23:19.254Z,7.37
2019-01-30T05:25:48.513Z,7.53
2019-01-30T05:28:19.232Z,6.73
2019-01-30T05:30:48.542Z,7.57
2019-01-30T05:33:17.800Z,6.83
2019-01-30T05:35:47.075Z,9.07
2019-01-30T05:38:16.351Z,6.40
2019-01-30T05:40:45.628Z,7.47
2019-01-30T05:43:14.908Z,9.50
2019-01-30T05:45:44.189Z,6.60
2019-01-30T05:48:13.499Z,9.17
2019-01-30T05:50:42.792Z,8.97
2019-01-30T05:53:12.098Z,6.23
2019-01-30T05:55:41.486Z,6.40
2019-01-30T05:58:10.741Z,7.43
2019-01-30T06:00:44.363Z,6.33
2019-01-30T06:03:13.673Z,6.70
2019-01-30T06:05:42.942Z,6.17
2019-01-30T06:08:12.211Z,7.83
2019-01-30T06:10:41.512Z,7.10
2019-01-30T06:13:10.771Z,8.57
2019-01-30T06:15:43.095Z,5.33
2019-01-30T06:18:12.988Z,4.67
2019-01-30T06:20:42.992Z,6.93
2019-01-30T06:23:13.078Z,6.27
2019-01-30T06:25:43.039Z,7.83
2019-01-30T06:28:14.409Z,5.33
2019-01-30T06:30:46.220Z,6.53
2019-01-30T06:33:16.133Z,4.67
2019-01-30T06:35:45.409Z,5.40
2019-01-30T06:38:15.403Z,5.90
2019-01-30T06:40:44.995Z,11.57
2019-01-30T06:43:14.544Z,4.83
2019-01-30T06:45:44.251Z,6.00
2019-01-30T06:48:13.753Z,6.70
2019-01-30T06:50:43.425Z,5.60
2019-01-30T06:53:12.980Z,6.27
2019-01-30T06:55:42.864Z,7.03
2019-01-30T06:58:12.677Z,6.07
2019-01-30T07:00:42.675Z,6.87
2019-01-30T07:03:12.603Z,8.03
2019-01-30T07:05:41.860Z,4.90
2019-01-30T07:08:11.136Z,5.00
2019-01-30T07:10:40.402Z,7.27
2019-01-30T07:13:09.705Z,5.47
2019-01-30T07:15:38.979Z,4.90
2019-01-30T07:18:08.404Z,6.20
2019-01-30T07:20:37.657Z,6.17
2019-01-30T07:23:06.922Z,6.97
2019-01-30T07:25:36.860Z,8.43
2019-01-30T07:28:06.268Z,5.63
2019-01-30T07:30:36.929Z,8.27
2019-01-30T07:33:07.539Z,8.17
2019-01-30T07:35:36.837Z,7.47
2019-01-30T07:38:06.099Z,6.30
2019-01-30T07:40:35.363Z,7.57
2019-01-30T07:43:05.047Z,7.33
2019-01-30T07:45:34.363Z,7.53
2019-01-30T07:48:03.712Z,11.40
2019-01-30T07:50:33.114Z,7.50
2019-01-30T07:53:02.379Z,8.33
2019-01-30T07:55:31.648Z,8.33
2019-01-30T07:58:00.919Z,10.33
2019-01-30T08:00:32.979Z,9.33
2019-01-30T08:03:02.392Z,8.53
2019-01-30T08:05:31.654Z,6.70
2019-01-30T08:08:00.949Z,6.40
2019-01-30T08:10:30.295Z,9.33
2019-01-30T08:12:59.615Z,8.27
2019-01-30T08:15:28.875Z,8.53
2019-01-30T08:17:58.253Z,6.87
2019-01-30T08:20:27.639Z,6.20
2019-01-30T08:22:57.008Z,7.83
2019-01-30T08:25:27.756Z,7.57
2019-01-30T08:27:57.468Z,7.70
2019-01-30T08:30:28.923Z,10.37
2019-01-30T08:33:04.809Z,6.10
2019-01-30T08:35:34.468Z,6.93
2019-01-30T08:38:04.443Z,8.47
2019-01-30T08:40:33.706Z,5.73
2019-01-30T08:43:03.076Z,7.67
2019-01-30T08:45:32.983Z,6.57
2019-01-30T08:48:02.612Z,6.07
2019-01-30T08:50:32.300Z,7.63
2019-01-30T08:53:01.540Z,8.23
2019-01-30T08:55:30.825Z,6.40
2019-01-30T08:58:00.108Z,7.47
2019-01-30T09:00:30.133Z,7.10
2019-01-30T09:02:59.529Z,8.03
2019-01-30T09:05:28.945Z,7.47
2019-01-30T09:07:58.473Z,7.90
2019-01-30T09:10:27.819Z,9.23
2019-01-30T09:12:57.141Z,8.53
2019-01-30T09:15:27.395Z,9.23
2019-01-30T09:17:56.644Z,9.97
2019-01-30T09:20:26.516Z,9.57
2019-01-30T09:22:56.330Z,8.33
2019-01-30T09:25:27.764Z,6.87
2019-01-30T09:27:57.039Z,9.57
2019-01-30T09:30:31.614Z,9.27
2019-01-30T09:33:01.035Z,10.03
2019-01-30T09:35:30.328Z,9.27
2019-01-30T09:37:59.615Z,6.00
2019-01-30T09:40:28.834Z,6.10
2019-01-30T09:42:58.121Z,12.10
2019-01-30T09:45:27.428Z,7.03
2019-01-30T09:47:56.791Z,8.47
2019-01-30T09:50:26.139Z,5.50
2019-01-30T09:52:55.407Z,7.70
2019-01-30T09:55:24.802Z,5.20
2019-01-30T09:57:54.035Z,6.97
2019-01-30T10:00:34.423Z,10.27
2019-01-30T10:03:04.087Z,11.67
2019-01-30T10:05:33.435Z,9.07
2019-01-30T10:08:02.691Z,14.70
2019-01-30T10:10:34.099Z,5.63
2019-01-30T10:13:03.743Z,10.13
2019-01-30T10:15:38.412Z,10.33
2019-01-30T10:18:08.579Z,7.13
2019-01-30T10:20:38.970Z,6.67
2019-01-30T10:23:08.250Z,6.97
2019-01-30T10:25:37.507Z,7.60
2019-01-30T10:28:16.277Z,5.80
2019-01-30T10:30:40.294Z,10.60
2019-01-30T10:33:09.579Z,10.43
2019-01-30T10:35:38.865Z,9.30
2019-01-30T10:38:09.197Z,7.97
2019-01-30T10:40:38.671Z,9.97
2019-01-30T10:43:08.223Z,6.17
2019-01-30T10:45:38.338Z,9.60
2019-01-30T10:48:07.745Z,9.63
2019-01-30T10:50:37.122Z,12.33
2019-01-30T10:53:06.637Z,9.27
2019-01-30T10:55:36.597Z,7.20
2019-01-30T10:58:09.114Z,7.73
2019-01-30T11:00:41.770Z,10.17
2019-01-30T11:03:11.197Z,5.73
2019-01-30T11:05:40.422Z,8.00
2019-01-30T11:08:09.939Z,8.27
2019-01-30T11:10:39.280Z,7.33
2019-01-30T11:13:09.082Z,6.37
2019-01-30T11:15:38.327Z,6.97
2019-01-30T11:18:10.485Z,6.50
2019-01-30T11:20:40.058Z,7.10
2019-01-30T11:23:09.412Z,7.73
2019-01-30T11:25:40.049Z,6.97
2019-01-30T11:28:09.419Z,12.33
2019-01-30T11:30:39.093Z,11.97
2019-01-30T11:33:08.341Z,9.20
2019-01-30T11:35:37.710Z,5.67
2019-01-30T11:38:09.053Z,6.07
2019-01-30T11:40:37.966Z,7.33
2019-01-30T11:43:07.330Z,7.23
2019-01-30T11:45:38.878Z,6.80
2019-01-30T11:48:09.026Z,7.73
2019-01-30T11:50:39.847Z,8.63
2019-01-30T11:53:09.210Z,5.43
2019-01-30T11:55:39.113Z,9.43
2019-01-30T11:58:08.881Z,10.30
2019-01-30T12:00:41.997Z,7.97
2019-01-30T12:03:11.338Z,6.17
2019-01-30T12:05:41.125Z,8.23
2019-01-30T12:08:10.509Z,10.87
2019-01-30T12:10:39.826Z,8.93
2019-01-30T12:13:09.102Z,9.83
2019-01-30T12:15:38.716Z,13.67
2019-01-30T12:18:08.193Z,7.30
2019-01-30T12:20:37.441Z,12.67
2019-01-30T12:23:07.514Z,7.17
2019-01-30T12:25:36.779Z,8.93
2019-01-30T12:28:06.399Z,8.77
2019-01-30T12:30:35.653Z,6.57
2019-01-30T12:33:05.122Z,9.33
2019-01-30T12:35:34.398Z,10.93
2019-01-30T12:38:03.655Z,6.93
2019-01-30T12:40:33.144Z,10.33
2019-01-30T12:43:02.403Z,7.30
2019-01-30T12:45:33.583Z,7.93
2019-01-30T12:48:02.856Z,4.83
2019-01-30T12:50:32.507Z,7.53
2019-01-30T12:53:01.794Z,7.50
2019-01-30T12:55:31.048Z,7.40
2019-01-30T12:58:00.345Z,4.70
2019-01-30T13:00:32.555Z,5.40
2019-01-30T13:03:02.207Z,6.17
2019-01-30T13:05:32.166Z,6.73
2019-01-30T13:08:01.527Z,5.20
2019-01-30T13:10:30.800Z,7.83
2019-01-30T13:13:00.068Z,5.63
2019-01-30T13:15:29.681Z,5.60
2019-01-30T13:17:59.345Z,7.47
2019-01-30T13:20:28.623Z,7.60
2019-01-30T13:22:57.896Z,11.60
2019-01-30T13:25:32.493Z,11.17
2019-01-30T13:28:01.768Z,7.20
2019-01-30T13:30:33.233Z,5.63
2019-01-30T13:33:02.864Z,6.57
2019-01-30T13:35:32.153Z,6.53
2019-01-30T13:38:01.426Z,10.03
2019-01-30T13:40:32.694Z,8.40
2019-01-30T13:43:02.185Z,4.93
2019-01-30T13:45:32.326Z,5.93
2019-01-30T13:48:01.711Z,6.70
2019-01-30T13:50:31.249Z,5.77
2019-01-30T13:53:00.550Z,6.63
2019-01-30T13:55:29.821Z,8.97
2019-01-30T13:57:59.096Z,6.10
2019-01-30T14:00:30.958Z,4.43
2019-01-30T14:03:00.539Z,6.53
2019-01-30T14:05:30.385Z,4.73
2019-01-30T14:07:59.831Z,8.77
2019-01-30T14:10:29.250Z,5.33
2019-01-30T14:12:58.519Z,6.77
2019-01-30T14:15:28.600Z,2.93
2019-01-30T14:17:57.867Z,6.70
2019-01-30T14:20:27.160Z,6.20
2019-01-30T14:22:56.448Z,5.57
2019-01-30T14:25:25.995Z,4.27
2019-01-30T14:27:55.236Z,4.60
2019-01-30T14:30:32.974Z,4.63
2019-01-30T14:33:02.236Z,7.10
2019-01-30T14:35:34.309Z,3.60
2019-01-30T14:38:03.603Z,5.13
2019-01-30T14:40:32.847Z,5.57
2019-01-30T14:43:02.109Z,7.23
2019-01-30T14:45:31.579Z,4.37
2019-01-30T14:48:00.856Z,5.93
2019-01-30T14:50:30.246Z,6.50
2019-01-30T14:52:59.488Z,5.07
2019-01-30T14:55:28.754Z,6.47
2019-01-30T14:57:58.136Z,5.33
2019-01-30T15:00:29.552Z,7.87
2019-01-30T15:02:59.104Z,3.17
2019-01-30T15:05:29.605Z,5.70
2019-01-30T15:07:58.965Z,10.53
2019-01-30T15:10:28.785Z,6.97
2019-01-30T15:12:58.041Z,7.50
2019-01-30T15:15:29.449Z,4.30
2019-01-30T15:17:58.786Z,6.27
2019-01-30T15:20:30.049Z,5.60
2019-01-30T15:22:59.886Z,5.40
2019-01-30T15:25:29.638Z,5.77
2019-01-30T15:27:59.959Z,6.47
2019-01-30T15:30:37.747Z,4.80
2019-01-30T15:33:07.445Z,7.13
2019-01-30T15:35:36.722Z,4.97
2019-01-30T15:38:08.268Z,6.57
2019-01-30T15:40:37.502Z,11.13
2019-01-30T15:43:06.770Z,5.53
2019-01-30T15:45:36.042Z,6.27
2019-01-30T15:48:05.849Z,4.83
2019-01-30T15:50:36.017Z,5.57
2019-01-30T15:53:08.801Z,4.40
2019-01-30T15:55:38.112Z,9.13
2019-01-30T15:58:09.735Z,5.47
2019-01-30T16:00:45.014Z,7.30
2019-01-30T16:03:14.272Z,10.43
2019-01-30T16:05:45.316Z,5.50
2019-01-30T16:08:14.867Z,8.20
2019-01-30T16:10:45.141Z,7.00
2019-01-30T16:13:14.417Z,6.00
2019-01-30T16:15:52.787Z,7.87
2019-01-30T16:18:23.439Z,7.43
2019-01-30T16:20:54.972Z,8.03
2019-01-30T16:23:26.287Z,7.67
2019-01-30T16:25:57.756Z,6.60
2019-01-30T16:28:29.566Z,6.77
2019-01-30T16:31:01.181Z,5.23
2019-01-30T16:33:32.721Z,5.67
2019-01-30T16:36:04.422Z,5.40
2019-01-30T16:38:35.980Z,5.73
2019-01-30T16:41:07.554Z,3.73
2019-01-30T16:43:37.292Z,4.50
2019-01-30T16:46:07.575Z,6.53
2019-01-30T16:48:38.745Z,5.10
2019-01-30T16:51:09.021Z,5.03
2019-01-30T16:53:38.550Z,2.83
2019-01-30T16:56:09.452Z,2.17
2019-01-30T16:58:41.029Z,1.80
2019-01-30T17:01:10.789Z,3.27
2019-01-30T17:03:41.962Z,4.50
2019-01-30T17:06:14.772Z,0.90
2019-01-30T17:08:44.850Z,1.53
2019-01-30T17:11:14.971Z,0.93
2019-01-30T17:13:46.375Z,0.97
2019-01-30T17:16:16.275Z,1.33
2019-01-30T17:18:45.837Z,1.77
2019-01-30T17:21:15.536Z,0.30
2019-01-30T17:23:45.294Z,0.40
2019-01-30T17:26:16.524Z,0.77
2019-01-30T17:28:48.741Z,0.67
2019-01-30T17:31:24.622Z,0.50
2019-01-30T17:33:56.470Z,0.60
2019-01-30T17:36:31.139Z,1.03
2019-01-30T17:39:03.337Z,0.40
2019-01-30T17:41:34.491Z,0.50
2019-01-30T17:44:03.836Z,1.07
2019-01-30T17:46:33.319Z,0.90
2019-01-30T17:49:04.114Z,1.80
2019-01-30T17:51:34.293Z,1.00
2019-01-30T17:54:06.489Z,2.70
2019-01-30T17:56:36.492Z,0.90
2019-01-30T17:59:08.214Z,1.73
2019-01-30T18:01:40.840Z,0.50
2019-01-30T18:04:10.913Z,1.40
2019-01-30T18:06:40.633Z,0.60
2019-01-30T18:09:12.041Z,1.67
2019-01-30T18:11:43.970Z,0.70
2019-01-30T18:14:14.990Z,0.97
2019-01-30T18:16:45.801Z,3.37
2019-01-30T18:19:23.648Z,1.53
2019-01-30T18:21:53.518Z,0.90
2019-01-30T18:24:24.350Z,1.47
2019-01-30T18:26:56.559Z,0.70
2019-01-30T18:29:26.049Z,0.70
2019-01-30T18:31:57.486Z,1.10
2019-01-30T18:34:28.810Z,1.77
2019-01-30T18:36:58.224Z,0.60
2019-01-30T18:39:30.316Z,0.67
2019-01-30T18:41:59.794Z,0.70
2019-01-30T18:44:33.697Z,1.27
2019-01-30T18:47:03.415Z,0.60
2019-01-30T18:49:33.346Z,2.27
2019-01-30T18:52:02.928Z,3.10
2019-01-30T18:54:33.335Z,0.80
2019-01-30T18:57:04.317Z,1.00
2019-01-30T18:59:33.962Z,1.73
2019-01-30T19:02:03.586Z,1.03
2019-01-30T19:04:33.564Z,2.00
2019-01-30T19:07:03.217Z,0.80
2019-01-30T19:09:32.753Z,0.60
2019-01-30T19:12:04.096Z,1.77
2019-01-30T19:14:33.959Z,1.00
2019-01-30T19:17:05.950Z,1.83
2019-01-30T19:19:36.936Z,1.20
2019-01-30T19:22:10.169Z,0.73
2019-01-30T19:24:40.339Z,1.20
2019-01-30T19:27:09.862Z,1.57
2019-01-30T19:29:40.272Z,0.90
2019-01-30T19:32:11.055Z,0.90
2019-01-30T19:34:41.310Z,1.10
2019-01-30T19:37:12.633Z,0.80
2019-01-30T19:39:43.931Z,1.17
2019-01-30T19:42:13.367Z,1.73
2019-01-30T19:44:42.838Z,1.53
2019-01-30T19:47:14.910Z,1.20
2019-01-30T19:49:45.402Z,2.10
2019-01-30T19:52:14.689Z,1.40
2019-01-30T19:54:44.021Z,1.40
2019-01-30T19:57:13.303Z,2.70
2019-01-30T19:59:43.619Z,2.47
2019-01-30T20:02:12.998Z,1.77
2019-01-30T20:04:42.470Z,1.20
2019-01-30T20:07:14.774Z,1.20
2019-01-30T20:09:44.854Z,3.30
2019-01-30T20:12:13.842Z,1.97
2019-01-30T20:14:43.114Z,3.73
2019-01-30T20:17:12.420Z,0.80
2019-01-30T20:19:41.689Z,2.00
2019-01-30T20:22:11.013Z,2.50
2019-01-30T20:24:41.691Z,3.03
2019-01-30T20:27:10.947Z,1.97
2019-01-30T20:29:40.223Z,2.83
2019-01-30T20:32:09.512Z,1.63
2019-01-30T20:34:38.800Z,1.33
2019-01-30T20:37:08.058Z,1.03
2019-01-30T20:39:37.343Z,2.60
2019-01-30T20:42:06.728Z,1.37
2019-01-30T20:44:36.074Z,1.50
2019-01-30T20:47:05.324Z,3.13
2019-01-30T20:49:34.573Z,1.63
2019-01-30T20:52:03.975Z,1.57
2019-01-30T20:54:33.244Z,2.13
2019-01-30T20:57:02.507Z,4.73
2019-01-30T20:59:32.800Z,2.93
2019-01-30T21:02:02.106Z,3.10
2019-01-30T21:04:31.411Z,2.27
2019-01-30T21:07:00.898Z,1.67
2019-01-30T21:09:30.181Z,2.13
2019-01-30T21:11:59.532Z,5.63
2019-01-30T21:14:28.850Z,2.40
2019-01-30T21:16:58.130Z,2.43
2019-01-30T21:19:27.541Z,1.63
2019-01-30T21:21:57.142Z,1.63
2019-01-30T21:24:28.595Z,1.20
2019-01-30T21:26:59.985Z,2.67
2019-01-30T21:29:41.661Z,2.67
2019-01-30T21:32:12.905Z,1.30
2019-01-30T21:34:44.272Z,3.00
2019-01-30T21:37:15.450Z,2.60
2019-01-30T21:39:46.802Z,3.40
2019-01-30T21:42:18.487Z,4.73
2019-01-30T21:45:09.528Z,3.93
2019-01-30T21:47:41.193Z,1.37
2019-01-30T21:50:12.880Z,3.23
2019-01-30T21:52:44.164Z,1.40
2019-01-30T21:55:16.747Z,3.57
2019-01-30T21:57:48.449Z,1.37
2019-01-30T22:00:23.274Z,1.63
2019-01-30T22:03:04.374Z,2.10
2019-01-30T22:05:39.690Z,3.47
2019-01-30T22:08:14.704Z,2.40
2019-01-30T22:10:44.098Z,1.60
2019-01-30T22:13:13.412Z,2.63
2019-01-30T22:15:43.128Z,3.47
2019-01-30T22:18:12.406Z,5.17
2019-01-30T22:20:43.065Z,2.47
2019-01-30T22:23:12.360Z,2.07
2019-01-30T22:25:41.638Z,1.13
2019-01-30T22:28:12.524Z,1.47
2019-01-30T22:30:41.789Z,2.20
2019-01-30T22:33:11.312Z,2.27
2019-01-30T22:35:40.628Z,3.60
2019-01-30T22:38:12.962Z,2.07
2019-01-30T22:40:42.743Z,1.30
2019-01-30T22:43:12.054Z,1.93
2019-01-30T22:45:41.774Z,2.23
2019-01-30T22:48:11.343Z,2.80
2019-01-30T22:50:41.024Z,1.77
2019-01-30T22:53:10.296Z,4.33
2019-01-30T22:55:41.066Z,2.30
2019-01-30T22:58:10.376Z,2.70
2019-01-30T23:01:30.322Z,2.10
2019-01-30T23:04:37.310Z,1.70
2019-01-30T23:08:03.475Z,1.00
2019-01-30T23:10:54.368Z,1.10
2019-01-30T23:13:36.026Z,2.87
2019-01-30T23:16:28.106Z,1.53
2019-01-30T23:19:25.745Z,2.73
2019-01-30T23:22:05.960Z,1.93
2019-01-30T23:25:08.622Z,0.80
2019-01-30T23:27:54.378Z,1.70
2019-01-30T23:31:20.002Z,1.80
2019-01-30T23:34:49.161Z,2.27
2019-01-30T23:37:52.824Z,4.53
2019-01-30T23:40:49.696Z,4.90
2019-01-30T23:43:48.474Z,2.83
2019-01-30T23:46:48.129Z,4.13
2019-01-30T23:49:53.070Z,4.20
2019-01-30T23:52:48.274Z,2.83
2019-01-30T23:55:43.095Z,2.40
2019-01-30T23:58:28.545Z,1.40
